Point Lay, AK

5:33 PM AKST on February 07, 2016 (GMT -0900)
Cape Lisburne LRRS | | Change Station
CLOSE
Current Station
Airport
Location: Cape Lisburne,
Elevation: 10 ft
Nearby Weather Stations
Active Advisory: Winter Weather Advisory

Elev 10 ft 68.88 °N, 166.13 °W | Updated 22 minutes ago

Overcast
Overcast
23 °F
Feels Like 14 °F
N
8
Wind Variable Wind from ENE

Today
High -- | Low -- °F
--% Chance of Precip.
Yesterday
High -- | Low -- °F
Precip. -- in
Pressure 29.91 in
Visibility 10.0 miles
Clouds Overcast 2500 ft
Windchill 14 °F
Dew Point 19 °F
Humidity 86%
Rainfall 0.00 in
Snow Depth Not available.
11:02 AM 5:10 PM
Waning Crescent, 0% visible
SPECI PALU 080211Z AUTO 06007KT 020V090 10SM OVC025 M05/M07 A2991 RMK AO2 WSHFT 0147 SLP128
Pressure 29.91 in
Visibility 10.0 miles
Clouds Overcast 2500 ft
Windchill 14 °F
Dew Point 19 °F
Humidity 86%
Rainfall 0.00 in
Snow Depth Not available.
11:02 AM 5:10 PM
Waning Crescent, 0% visible
SPECI PALU 080211Z AUTO 06007KT 020V090 10SM OVC025 M05/M07 A2991 RMK AO2 WSHFT 0147 SLP128

10-Day Weather Forecast

Almanac

Astronomy

Feb. 07, 2016 Rise Set
Actual Time
Civil Twilight
Nautical Twilight
Astronomical Twilight
Moon
Length of Visible Light
Length of Day
Tomorrow will be .
, % of the Moon is Illuminated

Today's Extremes

State Highs State Lows

Community

WunderPhotos

Upload Photos

1,891,373 photos uploaded!

WunderBlog® & News

Nearby

Air Quality

  Air Quality AQ Index Pollutant
Not available.

Snow Depth

Station Depth Elevation

Earthquake Activity

City Distance Mag. Time & Date
Minimum magnitude displayed is 2.5.

Coastal Water Temperatures

Place Temperature

Stations

Nearby Weather Stations

Station Location Temp. Windchill Dew Point Humidity Wind Precip. Elev Updated Type
                   

Watches & Warnings

Winter Weather Advisory
Issued: 11:47 AM AKST Feb. 7, 2016 – National Weather Service

... Winter Weather Advisory now in effect until 9 PM akst this
evening...

* location... from Point Lay north.

* Blowing snow... reducing visibility to one half mile or less at
times.

* Timing... conditions will improve late this morning as winds
begin to diminish.

* Impacts... visibility will be greatly reduced and snow will
accumulate into drifts. Whiteout conditions may occur. Travel
and outdoor activities will be difficult.

Precautionary/preparedness actions...

A Winter Weather Advisory means that one or more winter weather
hazards are expected to cause travel difficulties.